Accord, New York
Current Conditions -  °F | °C
As of 2:54 AM on Saturday 27 Dec 2014 (Local Time) from KMGJ Reporting Station
Clear Clear  
Wind Chill: 25°   Ceiling: Unl
Heat Index: 30°   Visibility: 10mi
Dew Point: 27°   Wind: 5mph
Humidity: 88%   Direction: 190°S
Pressure: 30.2"   Gusts: NA
Location:  41.79°N, 74.23°W
Report Text: KMGJ 270754Z AUTO 19004KT 10SM CLR M01/M03 A3020 RMK AO2 SLP230 T10111028 TSNO $
Loading
Personal Weather Stations






























Interactive Weather Map New forecast layout! Learn more

10-Day Weather Forecast

Advertisements
Track Severe Weather on mobile